Malaga, Spain

12:10 AM CET on December 11, 2016 (GMT +0100)
Calle Félix García Palacios | | Change Station

Elev 39 ft 36.71 °N, 4.45 °W | Updated 6 minutes ago

Mostly Cloudy
Mostly Cloudy
61.0 °F
Feels Like 61.0 °F
N
0.6
Wind Variable Wind from West
Gusts 2.5 mph

Today
High -- | Low -- °F
--% Chance of Precip.
Yesterday
High -- | Low -- °F
Precip. -- in
Pressure 30.36 in
Visibility 6.2 miles
Clouds Scattered Clouds 1500 ft
Mostly Cloudy 2500 ft
Dew Point 55 °F
Humidity 81%
Rainfall in
Snow Depth Not available.
8:20 AM 6:02 PM
Waxing Gibbous, 87% visible
METAR LEMG 102300Z 30003KT 9999 SCT015 BKN025 14/12 Q1028 NOSIG
Pressure 30.36 in
Visibility 6.2 miles
Clouds Scattered Clouds 1500 ft
Mostly Cloudy 2500 ft
Dew Point 55 °F
Humidity 81%
Rainfall in
Snow Depth Not available.
8:20 AM 6:02 PM
Waxing Gibbous, 87% visible
METAR LEMG 102300Z 30003KT 9999 SCT015 BKN025 14/12 Q1028 NOSIG

10-Day Weather Forecast

×

Almanac

Astronomy

Dec. 11, 2016 Rise Set
Actual Time
Civil Twilight
Nautical Twilight
Astronomical Twilight
Moon
Length of Visible Light
Length of Day
Tomorrow will be .
, % of the Moon is Illuminated

Today's Extremes

Country Highs Country Lows

Community

WunderPhotos

Upload Photos

1,956,670 photos uploaded!

WunderBlog® & News

Nearby

Air Quality

  Air Quality AQ Index Pollutant
Not available.

Snow Depth

Station Depth Elevation

Earthquake Activity

City Distance Mag. Time & Date
Minimum magnitude displayed is 2.5.

Coastal Water Temperatures

Place Temperature

Stations

Nearby Weather Stations

Station Location Temp. Windchill Dew Point Humidity Wind Precip. Elev Updated Type